sensor_id;sensor_type;location;lat;lon;timestamp;temperature;humidity
7972;DHT22;4031;49.758;6.120;2022-09-29T00:00:51;4.20;99.90
7972;DHT22;4031;49.758;6.120;2022-09-29T00:03:18;4.10;99.90
7972;DHT22;4031;49.758;6.120;2022-09-29T00:05:49;4.20;99.90
7972;DHT22;4031;49.758;6.120;2022-09-29T00:08:17;4.20;99.90
7972;DHT22;4031;49.758;6.120;2022-09-29T00:10:44;4.20;99.90
7972;DHT22;4031;49.758;6.120;2022-09-29T00:13:10;4.20;99.90
7972;DHT22;4031;49.758;6.120;2022-09-29T00:15:37;4.20;99.90
7972;DHT22;4031;49.758;6.120;2022-09-29T00:18:03;4.20;99.90
7972;DHT22;4031;49.758;6.120;2022-09-29T00:20:29;4.20;99.90
7972;DHT22;4031;49.758;6.120;2022-09-29T00:22:55;4.20;99.90
7972;DHT22;4031;49.758;6.120;2022-09-29T00:25:20;4.10;99.90
7972;DHT22;4031;49.758;6.120;2022-09-29T00:27:47;4.10;99.90
7972;DHT22;4031;49.758;6.120;2022-09-29T00:30:13;4.10;99.90
7972;DHT22;4031;49.758;6.120;2022-09-29T00:32:38;4.10;99.90
7972;DHT22;4031;49.758;6.120;2022-09-29T00:35:05;4.10;99.90
7972;DHT22;4031;49.758;6.120;2022-09-29T00:37:33;4.10;99.90
7972;DHT22;4031;49.758;6.120;2022-09-29T00:39:59;4.10;99.90
7972;DHT22;4031;49.758;6.120;2022-09-29T00:42:26;4.10;99.90
7972;DHT22;4031;49.758;6.120;2022-09-29T00:45:24;4.10;99.90
7972;DHT22;4031;49.758;6.120;2022-09-29T00:48:00;4.00;99.90
7972;DHT22;4031;49.758;6.120;2022-09-29T00:50:32;4.00;99.90
7972;DHT22;4031;49.758;6.120;2022-09-29T00:53:05;4.00;99.90
7972;DHT22;4031;49.758;6.120;2022-09-29T00:55:42;4.00;99.90
7972;DHT22;4031;49.758;6.120;2022-09-29T00:58:32;3.90;99.90
7972;DHT22;4031;49.758;6.120;2022-09-29T01:01:00;3.90;99.90
7972;DHT22;4031;49.758;6.120;2022-09-29T01:03:32;4.00;99.90
7972;DHT22;4031;49.758;6.120;2022-09-29T01:06:07;4.00;99.90
7972;DHT22;4031;49.758;6.120;2022-09-29T01:08:42;3.90;99.90
7972;DHT22;4031;49.758;6.120;2022-09-29T01:11:23;3.90;99.90
7972;DHT22;4031;49.758;6.120;2022-09-29T01:13:50;4.00;99.90
7972;DHT22;4031;49.758;6.120;2022-09-29T01:16:16;4.00;99.90
7972;DHT22;4031;49.758;6.120;2022-09-29T01:18:43;3.90;99.90
7972;DHT22;4031;49.758;6.120;2022-09-29T01:27:17;4.00;99.90
7972;DHT22;4031;49.758;6.120;2022-09-29T01:33:29;3.90;99.90
7972;DHT22;4031;49.758;6.120;2022-09-29T01:42:10;3.90;99.90
7972;DHT22;4031;49.758;6.120;2022-09-29T01:44:46;3.90;99.90
7972;DHT22;4031;49.758;6.120;2022-09-29T01:47:27;3.90;99.90
7972;DHT22;4031;49.758;6.120;2022-09-29T01:50:05;4.00;99.90
7972;DHT22;4031;49.758;6.120;2022-09-29T01:52:41;4.00;99.90
7972;DHT22;4031;49.758;6.120;2022-09-29T01:55:12;4.00;99.90
7972;DHT22;4031;49.758;6.120;2022-09-29T02:00:16;4.00;99.90
7972;DHT22;4031;49.758;6.120;2022-09-29T02:02:49;4.00;99.90
7972;DHT22;4031;49.758;6.120;2022-09-29T02:08:01;4.00;99.90
7972;DHT22;4031;49.758;6.120;2022-09-29T02:11:03;4.00;99.90
7972;DHT22;4031;49.758;6.120;2022-09-29T02:13:37;4.00;99.90
7972;DHT22;4031;49.758;6.120;2022-09-29T02:16:08;3.90;99.90
7972;DHT22;4031;49.758;6.120;2022-09-29T02:19:09;3.90;99.90
7972;DHT22;4031;49.758;6.120;2022-09-29T02:21:40;3.90;99.90
7972;DHT22;4031;49.758;6.120;2022-09-29T02:24:07;3.90;99.90
7972;DHT22;4031;49.758;6.120;2022-09-29T02:26:34;3.90;99.90
7972;DHT22;4031;49.758;6.120;2022-09-29T02:29:04;3.90;99.90
7972;DHT22;4031;49.758;6.120;2022-09-29T02:31:31;3.90;99.90
7972;DHT22;4031;49.758;6.120;2022-09-29T02:33:58;3.90;99.90
7972;DHT22;4031;49.758;6.120;2022-09-29T02:36:51;3.80;99.90
7972;DHT22;4031;49.758;6.120;2022-09-29T02:46:01;3.70;99.90
7972;DHT22;4031;49.758;6.120;2022-09-29T02:48:54;3.70;99.90
7972;DHT22;4031;49.758;6.120;2022-09-29T02:51:50;3.70;99.90
7972;DHT22;4031;49.758;6.120;2022-09-29T02:57:49;3.70;99.90
7972;DHT22;4031;49.758;6.120;2022-09-29T03:00:18;3.70;99.90
7972;DHT22;4031;49.758;6.120;2022-09-29T03:02:45;3.70;99.90
7972;DHT22;4031;49.758;6.120;2022-09-29T03:05:14;3.70;99.90
7972;DHT22;4031;49.758;6.120;2022-09-29T03:07:41;3.70;99.90
7972;DHT22;4031;49.758;6.120;2022-09-29T03:10:08;3.70;99.90
7972;DHT22;4031;49.758;6.120;2022-09-29T03:12:35;3.70;99.90
7972;DHT22;4031;49.758;6.120;2022-09-29T03:15:01;3.80;99.90
7972;DHT22;4031;49.758;6.120;2022-09-29T03:17:28;3.90;99.90
7972;DHT22;4031;49.758;6.120;2022-09-29T03:19:53;3.90;99.90
7972;DHT22;4031;49.758;6.120;2022-09-29T03:22:20;3.90;99.90
7972;DHT22;4031;49.758;6.120;2022-09-29T03:24:45;3.90;99.90
7972;DHT22;4031;49.758;6.120;2022-09-29T03:27:11;3.90;99.90
7972;DHT22;4031;49.758;6.120;2022-09-29T03:29:37;3.90;99.90
7972;DHT22;4031;49.758;6.120;2022-09-29T03:32:03;3.90;99.90
7972;DHT22;4031;49.758;6.120;2022-09-29T03:34:30;4.00;99.90
7972;DHT22;4031;49.758;6.120;2022-09-29T03:36:57;4.00;99.90
7972;DHT22;4031;49.758;6.120;2022-09-29T03:39:23;4.00;99.90
7972;DHT22;4031;49.758;6.120;2022-09-29T03:41:49;4.00;99.90
7972;DHT22;4031;49.758;6.120;2022-09-29T03:44:15;4.00;99.90
7972;DHT22;4031;49.758;6.120;2022-09-29T03:46:41;3.90;99.90
7972;DHT22;4031;49.758;6.120;2022-09-29T03:49:10;4.00;99.90
7972;DHT22;4031;49.758;6.120;2022-09-29T03:51:37;4.00;99.90
7972;DHT22;4031;49.758;6.120;2022-09-29T03:54:04;4.00;99.90
7972;DHT22;4031;49.758;6.120;2022-09-29T03:56:30;4.00;99.90
7972;DHT22;4031;49.758;6.120;2022-09-29T03:58:56;4.00;99.90
7972;DHT22;4031;49.758;6.120;2022-09-29T04:01:21;4.10;99.90
7972;DHT22;4031;49.758;6.120;2022-09-29T04:03:47;4.00;99.90
7972;DHT22;4031;49.758;6.120;2022-09-29T04:06:13;4.10;99.90
7972;DHT22;4031;49.758;6.120;2022-09-29T04:08:39;4.10;99.90
7972;DHT22;4031;49.758;6.120;2022-09-29T04:11:05;4.10;99.90
7972;DHT22;4031;49.758;6.120;2022-09-29T04:13:31;4.10;99.90
7972;DHT22;4031;49.758;6.120;2022-09-29T04:16:02;4.10;99.90
7972;DHT22;4031;49.758;6.120;2022-09-29T04:18:30;4.10;99.90
7972;DHT22;4031;49.758;6.120;2022-09-29T04:20:57;4.20;99.90
7972;DHT22;4031;49.758;6.120;2022-09-29T04:23:28;4.20;99.90
7972;DHT22;4031;49.758;6.120;2022-09-29T04:25:55;4.20;99.90
7972;DHT22;4031;49.758;6.120;2022-09-29T04:28:22;4.20;99.90
7972;DHT22;4031;49.758;6.120;2022-09-29T04:30:48;4.20;99.90
7972;DHT22;4031;49.758;6.120;2022-09-29T04:33:14;4.10;99.90
7972;DHT22;4031;49.758;6.120;2022-09-29T04:35:39;4.10;99.90
7972;DHT22;4031;49.758;6.120;2022-09-29T04:38:06;4.10;99.90
7972;DHT22;4031;49.758;6.120;2022-09-29T04:40:33;4.10;99.90
7972;DHT22;4031;49.758;6.120;2022-09-29T04:43:00;4.20;99.90
7972;DHT22;4031;49.758;6.120;2022-09-29T04:45:26;4.20;99.90
7972;DHT22;4031;49.758;6.120;2022-09-29T04:47:51;4.30;99.90
7972;DHT22;4031;49.758;6.120;2022-09-29T04:50:17;4.30;99.90
7972;DHT22;4031;49.758;6.120;2022-09-29T04:52:43;4.30;99.90
7972;DHT22;4031;49.758;6.120;2022-09-29T04:55:10;4.30;99.90
7972;DHT22;4031;49.758;6.120;2022-09-29T04:57:37;4.40;99.90
7972;DHT22;4031;49.758;6.120;2022-09-29T05:00:05;4.30;99.90
7972;DHT22;4031;49.758;6.120;2022-09-29T05:02:33;4.30;99.90
7972;DHT22;4031;49.758;6.120;2022-09-29T05:04:59;4.30;99.90
7972;DHT22;4031;49.758;6.120;2022-09-29T05:07:25;4.30;99.90
7972;DHT22;4031;49.758;6.120;2022-09-29T05:09:51;4.30;99.90
7972;DHT22;4031;49.758;6.120;2022-09-29T05:12:17;4.30;99.90
7972;DHT22;4031;49.758;6.120;2022-09-29T05:14:43;4.30;99.90
7972;DHT22;4031;49.758;6.120;2022-09-29T05:17:08;4.20;99.90
7972;DHT22;4031;49.758;6.120;2022-09-29T05:19:34;4.20;99.90
7972;DHT22;4031;49.758;6.120;2022-09-29T05:22:00;4.20;99.90
7972;DHT22;4031;49.758;6.120;2022-09-29T05:24:26;4.20;99.90
7972;DHT22;4031;49.758;6.120;2022-09-29T05:26:53;4.10;99.90
7972;DHT22;4031;49.758;6.120;2022-09-29T05:29:18;4.20;99.90
7972;DHT22;4031;49.758;6.120;2022-09-29T05:31:44;4.10;99.90
7972;DHT22;4031;49.758;6.120;2022-09-29T05:34:10;4.10;99.90
7972;DHT22;4031;49.758;6.120;2022-09-29T05:36:36;4.10;99.90
7972;DHT22;4031;49.758;6.120;2022-09-29T05:39:02;4.10;99.90
7972;DHT22;4031;49.758;6.120;2022-09-29T05:41:28;4.10;99.90
7972;DHT22;4031;49.758;6.120;2022-09-29T05:43:54;4.10;99.90
7972;DHT22;4031;49.758;6.120;2022-09-29T05:46:21;4.10;99.90
7972;DHT22;4031;49.758;6.120;2022-09-29T05:48:48;4.10;99.90
7972;DHT22;4031;49.758;6.120;2022-09-29T05:51:17;4.20;99.90
7972;DHT22;4031;49.758;6.120;2022-09-29T05:53:44;4.20;99.90
7972;DHT22;4031;49.758;6.120;2022-09-29T05:56:13;4.20;99.90
7972;DHT22;4031;49.758;6.120;2022-09-29T05:58:44;4.30;99.90
7972;DHT22;4031;49.758;6.120;2022-09-29T06:01:15;4.30;99.90
7972;DHT22;4031;49.758;6.120;2022-09-29T06:03:52;4.30;99.90
7972;DHT22;4031;49.758;6.120;2022-09-29T06:06:21;4.30;99.90
7972;DHT22;4031;49.758;6.120;2022-09-29T06:08:49;4.40;99.90
7972;DHT22;4031;49.758;6.120;2022-09-29T06:11:21;4.40;99.90
7972;DHT22;4031;49.758;6.120;2022-09-29T06:13:50;4.50;99.90
7972;DHT22;4031;49.758;6.120;2022-09-29T06:16:18;4.60;99.90
7972;DHT22;4031;49.758;6.120;2022-09-29T06:18:46;4.50;99.90
7972;DHT22;4031;49.758;6.120;2022-09-29T06:21:15;4.60;99.90
7972;DHT22;4031;49.758;6.120;2022-09-29T06:23:43;4.70;99.90
7972;DHT22;4031;49.758;6.120;2022-09-29T06:26:11;4.70;99.90
7972;DHT22;4031;49.758;6.120;2022-09-29T06:28:38;4.80;99.90
7972;DHT22;4031;49.758;6.120;2022-09-29T06:31:07;4.80;99.90
7972;DHT22;4031;49.758;6.120;2022-09-29T06:33:35;4.90;99.90
7972;DHT22;4031;49.758;6.120;2022-09-29T06:36:15;4.90;99.90
7972;DHT22;4031;49.758;6.120;2022-09-29T06:39:03;4.90;99.90
7972;DHT22;4031;49.758;6.120;2022-09-29T06:41:30;5.00;99.90
7972;DHT22;4031;49.758;6.120;2022-09-29T06:43:56;5.00;99.90
7972;DHT22;4031;49.758;6.120;2022-09-29T06:46:23;5.10;99.90
7972;DHT22;4031;49.758;6.120;2022-09-29T06:48:51;5.10;99.90
7972;DHT22;4031;49.758;6.120;2022-09-29T06:51:18;5.10;99.90
7972;DHT22;4031;49.758;6.120;2022-09-29T06:53:46;5.20;99.90
7972;DHT22;4031;49.758;6.120;2022-09-29T06:56:13;5.20;99.90
7972;DHT22;4031;49.758;6.120;2022-09-29T06:58:38;5.20;99.90
7972;DHT22;4031;49.758;6.120;2022-09-29T07:01:05;5.20;99.90
7972;DHT22;4031;49.758;6.120;2022-09-29T07:03:31;5.20;99.90
7972;DHT22;4031;49.758;6.120;2022-09-29T07:06:04;5.20;99.90
7972;DHT22;4031;49.758;6.120;2022-09-29T07:08:31;5.20;99.90
7972;DHT22;4031;49.758;6.120;2022-09-29T07:10:59;5.30;99.90
7972;DHT22;4031;49.758;6.120;2022-09-29T07:13:25;5.40;99.90
7972;DHT22;4031;49.758;6.120;2022-09-29T07:15:51;5.50;99.90
7972;DHT22;4031;49.758;6.120;2022-09-29T07:18:18;5.50;99.90
7972;DHT22;4031;49.758;6.120;2022-09-29T07:20:44;5.60;99.90
7972;DHT22;4031;49.758;6.120;2022-09-29T07:23:10;5.70;99.90
7972;DHT22;4031;49.758;6.120;2022-09-29T07:25:36;5.80;99.90
7972;DHT22;4031;49.758;6.120;2022-09-29T07:28:02;5.80;99.90
7972;DHT22;4031;49.758;6.120;2022-09-29T07:30:27;5.80;99.90
7972;DHT22;4031;49.758;6.120;2022-09-29T07:32:54;5.80;99.90
7972;DHT22;4031;49.758;6.120;2022-09-29T07:35:20;5.80;99.90
7972;DHT22;4031;49.758;6.120;2022-09-29T07:37:53;5.80;99.90
7972;DHT22;4031;49.758;6.120;2022-09-29T07:40:22;5.80;99.90
7972;DHT22;4031;49.758;6.120;2022-09-29T07:42:49;5.90;99.90
7972;DHT22;4031;49.758;6.120;2022-09-29T07:45:16;6.00;99.90
7972;DHT22;4031;49.758;6.120;2022-09-29T07:47:42;6.00;99.90
7972;DHT22;4031;49.758;6.120;2022-09-29T07:50:07;6.10;99.90
7972;DHT22;4031;49.758;6.120;2022-09-29T07:52:33;6.30;99.90
7972;DHT22;4031;49.758;6.120;2022-09-29T07:54:59;6.50;99.90
7972;DHT22;4031;49.758;6.120;2022-09-29T07:57:26;6.70;99.90
7972;DHT22;4031;49.758;6.120;2022-09-29T07:59:51;6.70;99.90
7972;DHT22;4031;49.758;6.120;2022-09-29T08:02:22;6.90;99.90
7972;DHT22;4031;49.758;6.120;2022-09-29T08:04:47;6.90;99.90
7972;DHT22;4031;49.758;6.120;2022-09-29T08:07:13;7.00;99.90
7972;DHT22;4031;49.758;6.120;2022-09-29T08:09:39;7.20;99.90
7972;DHT22;4031;49.758;6.120;2022-09-29T08:12:05;7.30;99.90
7972;DHT22;4031;49.758;6.120;2022-09-29T08:14:30;7.50;99.90
7972;DHT22;4031;49.758;6.120;2022-09-29T08:16:56;7.60;99.90
7972;DHT22;4031;49.758;6.120;2022-09-29T08:19:22;7.60;99.90
7972;DHT22;4031;49.758;6.120;2022-09-29T08:21:47;7.60;99.90
7972;DHT22;4031;49.758;6.120;2022-09-29T08:24:15;7.60;99.90
7972;DHT22;4031;49.758;6.120;2022-09-29T08:26:42;7.70;99.90
7972;DHT22;4031;49.758;6.120;2022-09-29T08:29:08;7.90;99.90
7972;DHT22;4031;49.758;6.120;2022-09-29T08:31:35;8.10;99.90
7972;DHT22;4031;49.758;6.120;2022-09-29T08:34:02;8.50;99.90
7972;DHT22;4031;49.758;6.120;2022-09-29T08:36:28;8.90;99.90
7972;DHT22;4031;49.758;6.120;2022-09-29T08:38:55;9.10;99.90
7972;DHT22;4031;49.758;6.120;2022-09-29T08:41:49;9.20;99.90
7972;DHT22;4031;49.758;6.120;2022-09-29T08:44:42;9.50;99.90
7972;DHT22;4031;49.758;6.120;2022-09-29T08:47:14;9.90;99.90
7972;DHT22;4031;49.758;6.120;2022-09-29T08:52:38;10.50;99.90
7972;DHT22;4031;49.758;6.120;2022-09-29T08:57:45;11.10;99.90
7972;DHT22;4031;49.758;6.120;2022-09-29T09:00:14;11.40;99.90
7972;DHT22;4031;49.758;6.120;2022-09-29T09:03:07;11.20;99.90
7972;DHT22;4031;49.758;6.120;2022-09-29T09:05:45;10.90;99.90
7972;DHT22;4031;49.758;6.120;2022-09-29T09:14:30;11.10;99.90
7972;DHT22;4031;49.758;6.120;2022-09-29T09:26:04;12.00;99.90
7972;DHT22;4031;49.758;6.120;2022-09-29T09:28:31;12.20;99.90
7972;DHT22;4031;49.758;6.120;2022-09-29T09:31:16;12.70;99.90
7972;DHT22;4031;49.758;6.120;2022-09-29T09:33:57;12.70;99.90
7972;DHT22;4031;49.758;6.120;2022-09-29T09:36:36;12.80;99.90
7972;DHT22;4031;49.758;6.120;2022-09-29T09:39:15;12.60;99.90
7972;DHT22;4031;49.758;6.120;2022-09-29T09:41:57;12.40;99.90
7972;DHT22;4031;49.758;6.120;2022-09-29T09:44:37;12.20;99.90
7972;DHT22;4031;49.758;6.120;2022-09-29T09:47:25;12.30;99.90
7972;DHT22;4031;49.758;6.120;2022-09-29T09:50:00;12.30;99.90
7972;DHT22;4031;49.758;6.120;2022-09-29T09:55:17;12.20;99.90
7972;DHT22;4031;49.758;6.120;2022-09-29T09:58:08;12.50;99.90
7972;DHT22;4031;49.758;6.120;2022-09-29T10:00:50;12.80;99.90
7972;DHT22;4031;49.758;6.120;2022-09-29T10:03:27;13.90;99.90
7972;DHT22;4031;49.758;6.120;2022-09-29T10:05:54;15.40;99.90
7972;DHT22;4031;49.758;6.120;2022-09-29T10:08:26;17.00;99.90
7972;DHT22;4031;49.758;6.120;2022-09-29T10:10:55;18.40;99.90
7972;DHT22;4031;49.758;6.120;2022-09-29T10:13:25;18.80;99.90
7972;DHT22;4031;49.758;6.120;2022-09-29T10:16:07;17.70;99.90
7972;DHT22;4031;49.758;6.120;2022-09-29T10:18:48;16.70;99.90
7972;DHT22;4031;49.758;6.120;2022-09-29T10:21:20;16.10;99.90
7972;DHT22;4031;49.758;6.120;2022-09-29T10:24:19;15.60;99.90
7972;DHT22;4031;49.758;6.120;2022-09-29T10:26:46;15.00;99.90
7972;DHT22;4031;49.758;6.120;2022-09-29T10:29:41;14.40;99.90
7972;DHT22;4031;49.758;6.120;2022-09-29T10:32:12;14.00;99.90
7972;DHT22;4031;49.758;6.120;2022-09-29T10:38:05;13.60;99.90
7972;DHT22;4031;49.758;6.120;2022-09-29T10:40:34;13.80;99.90
7972;DHT22;4031;49.758;6.120;2022-09-29T10:43:21;13.90;99.90
7972;DHT22;4031;49.758;6.120;2022-09-29T10:45:49;14.10;99.90
7972;DHT22;4031;49.758;6.120;2022-09-29T10:48:15;14.20;99.90
7972;DHT22;4031;49.758;6.120;2022-09-29T10:50:55;14.30;99.90
7972;DHT22;4031;49.758;6.120;2022-09-29T10:53:39;14.50;99.90
7972;DHT22;4031;49.758;6.120;2022-09-29T10:56:26;14.80;99.90
7972;DHT22;4031;49.758;6.120;2022-09-29T10:58:58;15.10;99.90
7972;DHT22;4031;49.758;6.120;2022-09-29T11:01:27;15.20;99.90
7972;DHT22;4031;49.758;6.120;2022-09-29T11:04:03;15.50;99.90
7972;DHT22;4031;49.758;6.120;2022-09-29T11:06:33;16.50;99.90
7972;DHT22;4031;49.758;6.120;2022-09-29T11:09:06;16.50;99.90
7972;DHT22;4031;49.758;6.120;2022-09-29T11:11:55;16.30;99.90
7972;DHT22;4031;49.758;6.120;2022-09-29T11:17:29;19.30;99.90
7972;DHT22;4031;49.758;6.120;2022-09-29T11:19:59;19.80;99.90
7972;DHT22;4031;49.758;6.120;2022-09-29T11:29:24;22.20;99.90
7972;DHT22;4031;49.758;6.120;2022-09-29T11:32:20;22.50;99.90
7972;DHT22;4031;49.758;6.120;2022-09-29T11:50:59;20.80;99.90
7972;DHT22;4031;49.758;6.120;2022-09-29T11:59:23;17.30;99.90
7972;DHT22;4031;49.758;6.120;2022-09-29T12:05:18;17.20;99.90
7972;DHT22;4031;49.758;6.120;2022-09-29T12:08:14;17.40;99.90
7972;DHT22;4031;49.758;6.120;2022-09-29T12:13:36;17.50;99.90
7972;DHT22;4031;49.758;6.120;2022-09-29T12:16:14;17.20;99.90
7972;DHT22;4031;49.758;6.120;2022-09-29T12:18:52;17.50;99.90
7972;DHT22;4031;49.758;6.120;2022-09-29T12:27:15;18.40;99.90
7972;DHT22;4031;49.758;6.120;2022-09-29T12:29:56;18.40;99.90
7972;DHT22;4031;49.758;6.120;2022-09-29T12:35:17;18.40;99.90
7972;DHT22;4031;49.758;6.120;2022-09-29T12:38:18;18.90;99.90
7972;DHT22;4031;49.758;6.120;2022-09-29T12:41:10;19.40;99.90
7972;DHT22;4031;49.758;6.120;2022-09-29T12:46:52;17.50;99.90
7972;DHT22;4031;49.758;6.120;2022-09-29T12:52:31;16.10;99.90
7972;DHT22;4031;49.758;6.120;2022-09-29T12:55:04;16.80;99.90
7972;DHT22;4031;49.758;6.120;2022-09-29T12:57:36;17.60;99.90
7972;DHT22;4031;49.758;6.120;2022-09-29T13:00:05;17.40;99.90
7972;DHT22;4031;49.758;6.120;2022-09-29T13:08:50;16.00;99.90
7972;DHT22;4031;49.758;6.120;2022-09-29T13:17:17;14.70;99.90
7972;DHT22;4031;49.758;6.120;2022-09-29T13:20:21;14.50;99.90
7972;DHT22;4031;49.758;6.120;2022-09-29T13:29:16;14.30;99.90
7972;DHT22;4031;49.758;6.120;2022-09-29T13:31:49;14.40;99.90
7972;DHT22;4031;49.758;6.120;2022-09-29T13:34:32;14.50;99.90
7972;DHT22;4031;49.758;6.120;2022-09-29T13:37:14;14.60;99.90
7972;DHT22;4031;49.758;6.120;2022-09-29T13:39:51;14.60;99.90
7972;DHT22;4031;49.758;6.120;2022-09-29T13:42:37;14.70;99.90
7972;DHT22;4031;49.758;6.120;2022-09-29T13:45:34;14.80;99.90
7972;DHT22;4031;49.758;6.120;2022-09-29T13:48:45;14.80;99.90
7972;DHT22;4031;49.758;6.120;2022-09-29T13:51:26;15.00;99.90
7972;DHT22;4031;49.758;6.120;2022-09-29T14:02:39;16.10;99.90
7972;DHT22;4031;49.758;6.120;2022-09-29T14:15:39;17.60;99.90
7972;DHT22;4031;49.758;6.120;2022-09-29T14:18:47;18.60;99.90
7972;DHT22;4031;49.758;6.120;2022-09-29T14:21:44;19.60;99.90
7972;DHT22;4031;49.758;6.120;2022-09-29T14:27:39;18.80;99.90
7972;DHT22;4031;49.758;6.120;2022-09-29T14:35:23;18.60;99.90
7972;DHT22;4031;49.758;6.120;2022-09-29T14:37:59;19.10;99.90
7972;DHT22;4031;49.758;6.120;2022-09-29T14:40:30;19.70;99.90
7972;DHT22;4031;49.758;6.120;2022-09-29T14:43:12;20.20;99.90
7972;DHT22;4031;49.758;6.120;2022-09-29T14:58:59;21.10;99.90
7972;DHT22;4031;49.758;6.120;2022-09-29T15:01:31;21.00;97.70
7972;DHT22;4031;49.758;6.120;2022-09-29T15:04:05;20.80;98.10
7972;DHT22;4031;49.758;6.120;2022-09-29T15:06:43;20.70;97.10
7972;DHT22;4031;49.758;6.120;2022-09-29T15:09:19;20.50;97.00
7972;DHT22;4031;49.758;6.120;2022-09-29T15:11:54;19.80;95.90
7972;DHT22;4031;49.758;6.120;2022-09-29T15:14:30;19.10;96.80
7972;DHT22;4031;49.758;6.120;2022-09-29T15:25:34;17.00;99.00
7972;DHT22;4031;49.758;6.120;2022-09-29T15:28:05;16.60;99.90
7972;DHT22;4031;49.758;6.120;2022-09-29T15:30:37;16.40;99.90
7972;DHT22;4031;49.758;6.120;2022-09-29T15:33:22;16.00;99.90
7972;DHT22;4031;49.758;6.120;2022-09-29T15:38:42;15.20;99.80
7972;DHT22;4031;49.758;6.120;2022-09-29T15:46:47;14.50;99.90
7972;DHT22;4031;49.758;6.120;2022-09-29T15:49:20;14.20;99.90
7972;DHT22;4031;49.758;6.120;2022-09-29T15:54:27;13.90;99.90
7972;DHT22;4031;49.758;6.120;2022-09-29T15:57:02;13.70;99.90
7972;DHT22;4031;49.758;6.120;2022-09-29T15:59:51;13.50;99.90
7972;DHT22;4031;49.758;6.120;2022-09-29T16:02:30;13.40;99.90
7972;DHT22;4031;49.758;6.120;2022-09-29T16:05:06;13.20;99.90
7972;DHT22;4031;49.758;6.120;2022-09-29T16:07:40;13.10;99.90
7972;DHT22;4031;49.758;6.120;2022-09-29T16:10:18;13.00;99.90
7972;DHT22;4031;49.758;6.120;2022-09-29T16:13:04;12.80;99.90
7972;DHT22;4031;49.758;6.120;2022-09-29T16:15:44;12.80;99.90
7972;DHT22;4031;49.758;6.120;2022-09-29T16:21:14;12.50;99.90
7972;DHT22;4031;49.758;6.120;2022-09-29T16:24:02;12.30;99.90
7972;DHT22;4031;49.758;6.120;2022-09-29T16:26:54;12.10;99.90
7972;DHT22;4031;49.758;6.120;2022-09-29T16:29:32;11.90;99.90
7972;DHT22;4031;49.758;6.120;2022-09-29T16:35:35;11.60;99.90
7972;DHT22;4031;49.758;6.120;2022-09-29T16:43:49;11.00;99.90
7972;DHT22;4031;49.758;6.120;2022-09-29T16:46:20;10.90;99.90
7972;DHT22;4031;49.758;6.120;2022-09-29T16:48:47;10.80;99.90
7972;DHT22;4031;49.758;6.120;2022-09-29T16:51:20;10.60;99.90
7972;DHT22;4031;49.758;6.120;2022-09-29T16:53:47;10.40;99.90
7972;DHT22;4031;49.758;6.120;2022-09-29T16:56:43;10.20;99.90
7972;DHT22;4031;49.758;6.120;2022-09-29T16:59:17;10.00;99.90
7972;DHT22;4031;49.758;6.120;2022-09-29T17:01:45;9.90;99.90
7972;DHT22;4031;49.758;6.120;2022-09-29T17:04:11;9.80;99.90
7972;DHT22;4031;49.758;6.120;2022-09-29T17:06:38;9.70;99.90
7972;DHT22;4031;49.758;6.120;2022-09-29T17:09:11;9.70;99.90
7972;DHT22;4031;49.758;6.120;2022-09-29T17:11:41;9.60;99.90
7972;DHT22;4031;49.758;6.120;2022-09-29T17:14:10;9.50;99.90
7972;DHT22;4031;49.758;6.120;2022-09-29T17:16:38;9.40;99.90
7972;DHT22;4031;49.758;6.120;2022-09-29T17:19:07;9.30;99.90
7972;DHT22;4031;49.758;6.120;2022-09-29T17:21:33;9.10;99.90
7972;DHT22;4031;49.758;6.120;2022-09-29T17:23:59;9.00;99.90
7972;DHT22;4031;49.758;6.120;2022-09-29T17:26:33;8.90;99.90
7972;DHT22;4031;49.758;6.120;2022-09-29T17:29:18;8.80;99.90
7972;DHT22;4031;49.758;6.120;2022-09-29T17:31:44;8.60;99.90
7972;DHT22;4031;49.758;6.120;2022-09-29T17:34:09;8.50;99.90
7972;DHT22;4031;49.758;6.120;2022-09-29T17:36:36;8.40;99.90
7972;DHT22;4031;49.758;6.120;2022-09-29T17:39:03;8.30;99.90
7972;DHT22;4031;49.758;6.120;2022-09-29T17:41:29;8.10;99.90
7972;DHT22;4031;49.758;6.120;2022-09-29T17:43:56;8.00;99.90
7972;DHT22;4031;49.758;6.120;2022-09-29T17:46:22;7.80;99.90
7972;DHT22;4031;49.758;6.120;2022-09-29T17:48:48;7.70;99.90
7972;DHT22;4031;49.758;6.120;2022-09-29T17:51:15;7.60;99.90
7972;DHT22;4031;49.758;6.120;2022-09-29T17:53:45;7.50;99.90
7972;DHT22;4031;49.758;6.120;2022-09-29T17:56:21;7.40;99.90
7972;DHT22;4031;49.758;6.120;2022-09-29T17:58:53;7.20;99.90
7972;DHT22;4031;49.758;6.120;2022-09-29T18:01:22;7.20;99.90
7972;DHT22;4031;49.758;6.120;2022-09-29T18:03:50;7.20;99.90
7972;DHT22;4031;49.758;6.120;2022-09-29T18:06:19;7.20;99.90
7972;DHT22;4031;49.758;6.120;2022-09-29T18:08:47;7.20;99.90
7972;DHT22;4031;49.758;6.120;2022-09-29T18:11:16;7.10;99.90
7972;DHT22;4031;49.758;6.120;2022-09-29T18:13:43;7.10;99.90
7972;DHT22;4031;49.758;6.120;2022-09-29T18:16:14;7.00;99.90
7972;DHT22;4031;49.758;6.120;2022-09-29T18:18:45;6.90;99.90
7972;DHT22;4031;49.758;6.120;2022-09-29T18:21:11;6.90;99.90
7972;DHT22;4031;49.758;6.120;2022-09-29T18:23:38;6.80;99.90
7972;DHT22;4031;49.758;6.120;2022-09-29T18:26:05;6.80;99.90
7972;DHT22;4031;49.758;6.120;2022-09-29T18:28:31;6.80;99.90
7972;DHT22;4031;49.758;6.120;2022-09-29T18:31:06;6.80;99.90
7972;DHT22;4031;49.758;6.120;2022-09-29T18:33:39;6.70;99.90
7972;DHT22;4031;49.758;6.120;2022-09-29T18:36:07;6.70;99.90
7972;DHT22;4031;49.758;6.120;2022-09-29T18:38:33;6.70;99.90
7972;DHT22;4031;49.758;6.120;2022-09-29T18:40:59;6.60;99.90
7972;DHT22;4031;49.758;6.120;2022-09-29T18:43:25;6.50;99.90
7972;DHT22;4031;49.758;6.120;2022-09-29T18:45:54;6.50;99.90
7972;DHT22;4031;49.758;6.120;2022-09-29T18:48:21;6.40;99.90
7972;DHT22;4031;49.758;6.120;2022-09-29T18:50:49;6.40;99.90
7972;DHT22;4031;49.758;6.120;2022-09-29T18:53:18;6.40;99.90
7972;DHT22;4031;49.758;6.120;2022-09-29T18:55:45;6.40;99.90
7972;DHT22;4031;49.758;6.120;2022-09-29T18:58:12;6.40;99.90
7972;DHT22;4031;49.758;6.120;2022-09-29T19:00:42;6.30;99.90
7972;DHT22;4031;49.758;6.120;2022-09-29T19:03:09;6.30;99.90
7972;DHT22;4031;49.758;6.120;2022-09-29T19:05:40;6.20;99.90
7972;DHT22;4031;49.758;6.120;2022-09-29T19:08:07;6.10;99.90
7972;DHT22;4031;49.758;6.120;2022-09-29T19:10:34;5.90;99.90
7972;DHT22;4031;49.758;6.120;2022-09-29T19:13:05;5.80;99.90
7972;DHT22;4031;49.758;6.120;2022-09-29T19:15:35;5.80;99.90
7972;DHT22;4031;49.758;6.120;2022-09-29T19:18:07;5.70;99.90
7972;DHT22;4031;49.758;6.120;2022-09-29T19:20:34;5.70;99.90
7972;DHT22;4031;49.758;6.120;2022-09-29T19:23:01;5.60;99.90
7972;DHT22;4031;49.758;6.120;2022-09-29T19:25:30;5.50;99.90
7972;DHT22;4031;49.758;6.120;2022-09-29T19:27:58;5.50;99.90
7972;DHT22;4031;49.758;6.120;2022-09-29T19:30:25;5.40;99.90
7972;DHT22;4031;49.758;6.120;2022-09-29T19:32:52;5.40;99.90
7972;DHT22;4031;49.758;6.120;2022-09-29T19:35:22;5.40;99.90
7972;DHT22;4031;49.758;6.120;2022-09-29T19:37:49;5.30;99.90
7972;DHT22;4031;49.758;6.120;2022-09-29T19:40:19;5.20;99.90
7972;DHT22;4031;49.758;6.120;2022-09-29T19:42:48;5.20;99.90
7972;DHT22;4031;49.758;6.120;2022-09-29T19:45:14;5.20;99.90
7972;DHT22;4031;49.758;6.120;2022-09-29T19:47:40;5.20;99.90
7972;DHT22;4031;49.758;6.120;2022-09-29T19:50:07;5.10;99.90
7972;DHT22;4031;49.758;6.120;2022-09-29T19:52:52;5.10;99.90
7972;DHT22;4031;49.758;6.120;2022-09-29T19:55:19;5.10;99.90
7972;DHT22;4031;49.758;6.120;2022-09-29T19:57:46;5.10;99.90
7972;DHT22;4031;49.758;6.120;2022-09-29T20:00:15;5.00;99.90
7972;DHT22;4031;49.758;6.120;2022-09-29T20:02:42;4.90;99.90